Time;durP1;ratioP1;P1;durP2;ratioP2;P2;SDS_P1;SDS_P2;PMS_P1;PMS_P2;Temp;Humidity;BMP_temperature;BMP_pressure;BME280_temperature;BME280_humidity;BME280_pressure;Samples;Min_cycle;Max_cycle;Signal;HPM_P1;HPM_P2
2022/03/05 00:00:34;;;;;;;28.20;15.20;;;2.50;71.30;;;;;;5007788;28;20536;-70
2022/03/05 00:03:00;;;;;;;27.25;14.45;;;2.50;71.30;;;;;;5007288;28;20119;-72
2022/03/05 00:05:26;;;;;;;27.98;16.10;;;2.40;71.20;;;;;;5009612;28;20029;-70
2022/03/05 00:07:52;;;;;;;25.77;13.88;;;2.50;71.20;;;;;;5004203;28;20026;-71
2022/03/05 00:10:21;;;;;;;23.67;13.05;;;2.40;71.30;;;;;;5009254;28;20033;-70
2022/03/05 00:12:51;;;;;;;24.45;13.88;;;2.40;71.30;;;;;;5006707;28;20021;-70
2022/03/05 00:15:18;;;;;;;21.25;12.07;;;2.40;71.50;;;;;;5009276;28;20685;-70
2022/03/05 00:17:44;;;;;;;26.27;15.30;;;2.30;71.50;;;;;;5002948;28;20034;-69
2022/03/05 00:20:11;;;;;;;23.77;14.10;;;2.30;71.60;;;;;;5007090;28;20038;-70
2022/03/05 00:22:36;;;;;;;23.33;12.63;;;2.30;71.80;;;;;;5014039;28;20041;-69
2022/03/05 00:25:06;;;;;;;19.90;10.88;;;2.20;71.80;;;;;;5007385;28;20026;-69
2022/03/05 00:27:31;;;;;;;20.15;12.07;;;2.20;71.80;;;;;;5001431;28;20022;-69
2022/03/05 00:29:57;;;;;;;21.88;12.55;;;2.20;71.80;;;;;;5005256;28;20413;-70
2022/03/05 00:32:22;;;;;;;24.02;13.63;;;2.20;71.80;;;;;;5006004;28;20436;-71
2022/03/05 00:34:48;;;;;;;22.75;13.13;;;2.20;72.00;;;;;;5002775;28;20113;-71
2022/03/05 00:37:14;;;;;;;24.80;14.85;;;2.10;72.10;;;;;;5004291;28;20022;-70
2022/03/05 00:39:39;;;;;;;21.63;13.15;;;2.10;72.20;;;;;;5006352;28;20061;-70
2022/03/05 00:42:05;;;;;;;22.05;12.70;;;2.10;72.20;;;;;;5005681;28;20125;-71
2022/03/05 00:44:31;;;;;;;23.55;13.32;;;2.10;72.20;;;;;;5004413;28;20487;-69
2022/03/05 00:46:57;;;;;;;23.77;14.15;;;2.10;72.20;;;;;;5005478;28;20440;-70
2022/03/05 00:49:22;;;;;;;24.65;13.43;;;2.00;72.10;;;;;;5008006;28;20473;-70
2022/03/05 00:51:49;;;;;;;26.33;13.80;;;2.10;72.30;;;;;;5003611;28;20030;-69
2022/03/05 00:54:14;;;;;;;23.17;13.07;;;2.00;72.40;;;;;;5006077;28;20022;-70
2022/03/05 00:56:40;;;;;;;26.63;14.10;;;2.00;72.50;;;;;;5001223;28;20030;-70
2022/03/05 00:59:06;;;;;;;24.23;14.15;;;2.00;73.10;;;;;;5008535;28;20069;-70
2022/03/05 01:01:31;;;;;;;24.02;13.50;;;1.90;72.40;;;;;;5007197;28;20032;-70
2022/03/05 01:03:57;;;;;;;25.80;13.63;;;2.00;72.40;;;;;;5009501;28;20017;-70
2022/03/05 01:06:22;;;;;;;23.65;13.98;;;1.90;72.60;;;;;;5006204;28;20075;-70
2022/03/05 01:08:48;;;;;;;24.70;14.35;;;1.90;72.50;;;;;;5006030;28;20500;-70
2022/03/05 01:11:17;;;;;;;23.05;13.60;;;1.90;72.70;;;;;;5007096;28;20018;-70
2022/03/05 01:13:43;;;;;;;24.25;13.25;;;1.80;72.70;;;;;;5004963;28;20022;-70
2022/03/05 01:16:09;;;;;;;19.80;11.38;;;1.80;72.70;;;;;;5009490;28;20583;-70
2022/03/05 01:18:34;;;;;;;26.13;14.32;;;1.80;72.60;;;;;;5003501;28;20030;-69
2022/03/05 01:21:00;;;;;;;25.90;14.95;;;1.80;72.70;;;;;;4999740;28;20442;-71
2022/03/05 01:23:26;;;;;;;22.92;13.10;;;1.80;72.80;;;;;;5006354;28;20077;-70
2022/03/05 01:25:51;;;;;;;28.30;14.20;;;1.80;72.80;;;;;;5002573;28;20049;-70
2022/03/05 01:28:17;;;;;;;26.13;13.57;;;1.70;72.80;;;;;;5005391;28;20109;-70
2022/03/05 01:30:42;;;;;;;23.42;12.52;;;1.70;72.90;;;;;;5004126;28;20041;-70
2022/03/05 01:33:08;;;;;;;24.38;14.18;;;1.70;72.90;;;;;;5008049;28;20427;-70
2022/03/05 01:35:33;;;;;;;27.05;14.45;;;1.70;73.10;;;;;;5002401;28;20056;-70
2022/03/05 01:37:59;;;;;;;24.98;14.57;;;1.70;73.20;;;;;;5005483;28;20022;-70
2022/03/05 01:40:24;;;;;;;25.60;14.27;;;1.60;73.20;;;;;;5008180;28;20156;-71
2022/03/05 01:42:50;;;;;;;23.10;13.32;;;1.60;73.20;;;;;;5002206;28;20022;-71
2022/03/05 01:45:16;;;;;;;29.02;15.93;;;1.60;73.40;;;;;;5006189;28;20117;-73
2022/03/05 01:47:42;;;;;;;21.52;12.25;;;1.50;73.60;;;;;;5002681;28;20034;-70
2022/03/05 01:50:09;;;;;;;27.20;14.88;;;1.60;73.50;;;;;;5006185;28;20022;-70
2022/03/05 01:52:34;;;;;;;28.63;15.85;;;1.60;74.10;;;;;;5012903;28;20033;-69
2022/03/05 01:55:01;;;;;;;23.25;12.93;;;1.50;73.30;;;;;;5004111;28;20032;-70
2022/03/05 01:57:26;;;;;;;20.92;11.45;;;1.50;73.40;;;;;;5003725;28;20493;-71
2022/03/05 01:59:53;;;;;;;26.20;14.60;;;1.50;73.30;;;;;;5001119;28;20100;-71
2022/03/05 02:02:18;;;;;;;26.05;14.73;;;1.50;73.50;;;;;;5005899;28;20076;-71
2022/03/05 02:04:44;;;;;;;26.80;14.73;;;1.40;73.70;;;;;;5001457;28;20033;-71
2022/03/05 02:07:10;;;;;;;27.83;15.05;;;1.40;73.70;;;;;;5002974;28;20032;-71
2022/03/05 02:09:36;;;;;;;26.48;14.20;;;1.40;73.90;;;;;;5002866;28;20026;-72
2022/03/05 02:12:02;;;;;;;26.05;14.43;;;1.40;74.10;;;;;;5001668;28;20122;-71
2022/03/05 02:14:29;;;;;;;33.22;16.67;;;1.30;74.10;;;;;;5018013;28;20435;-71
2022/03/05 02:16:55;;;;;;;29.02;15.23;;;1.30;74.10;;;;;;5012040;28;20036;-71
2022/03/05 02:19:20;;;;;;;26.33;14.43;;;1.30;74.00;;;;;;5017299;28;20045;-71
2022/03/05 02:21:46;;;;;;;27.77;15.05;;;1.30;74.00;;;;;;5019933;28;20510;-71
2022/03/05 02:24:12;;;;;;;27.15;14.98;;;1.30;74.00;;;;;;5010896;28;20040;-71
2022/03/05 02:26:37;;;;;;;28.23;16.00;;;1.30;74.10;;;;;;5019203;28;20464;-71
2022/03/05 02:29:03;;;;;;;29.52;16.40;;;1.20;74.20;;;;;;5005246;28;20031;-71
2022/03/05 02:31:29;;;;;;;26.65;14.90;;;1.20;74.40;;;;;;5021306;28;20029;-71
2022/03/05 02:33:55;;;;;;;28.83;15.93;;;1.20;74.50;;;;;;5005434;28;20041;-71
2022/03/05 02:36:22;;;;;;;29.40;15.57;;;1.20;74.50;;;;;;5021312;28;20495;-71
2022/03/05 02:38:48;;;;;;;29.85;16.33;;;1.20;74.40;;;;;;5008305;28;20046;-70
2022/03/05 02:41:14;;;;;;;28.80;15.13;;;1.20;74.40;;;;;;5020585;28;20156;-71
2022/03/05 02:43:39;;;;;;;27.50;14.85;;;1.20;74.40;;;;;;5009733;28;20137;-71
2022/03/05 02:46:05;;;;;;;27.45;15.82;;;1.20;74.40;;;;;;5020032;28;20071;-71
2022/03/05 02:48:33;;;;;;;29.52;15.50;;;1.20;74.40;;;;;;5015666;28;20159;-70
2022/03/05 02:50:58;;;;;;;31.17;16.88;;;1.20;74.30;;;;;;5018851;28;20023;-70
2022/03/05 02:53:24;;;;;;;28.02;14.57;;;1.20;74.40;;;;;;5020055;28;20155;-70
2022/03/05 02:55:49;;;;;;;30.05;15.77;;;1.10;74.40;;;;;;5015551;28;20460;-70
2022/03/05 02:58:15;;;;;;;25.73;14.20;;;1.10;74.50;;;;;;5019779;28;20029;-70
2022/03/05 03:00:41;;;;;;;34.88;17.73;;;1.10;74.60;;;;;;5015165;28;20031;-71
2022/03/05 03:03:06;;;;;;;27.25;14.48;;;1.10;74.50;;;;;;5017050;28;20387;-70
2022/03/05 03:05:32;;;;;;;32.83;16.60;;;1.10;74.50;;;;;;5017958;28;20047;-70
2022/03/05 03:07:57;;;;;;;29.38;15.20;;;1.10;74.50;;;;;;5013283;28;20026;-70
2022/03/05 03:10:23;;;;;;;29.77;16.02;;;1.00;74.50;;;;;;5021562;28;20017;-70
2022/03/05 03:12:49;;;;;;;26.45;13.27;;;1.10;74.60;;;;;;5016560;28;20030;-69
2022/03/05 03:15:15;;;;;;;28.50;15.65;;;1.10;74.40;;;;;;5019939;28;20053;-70
2022/03/05 03:17:45;;;;;;;26.92;14.63;;;1.00;74.60;;;;;;5015421;28;20076;-70
2022/03/05 03:20:12;;;;;;;28.58;14.95;;;1.10;74.50;;;;;;5020421;28;20033;-70
2022/03/05 03:22:39;;;;;;;29.42;15.32;;;1.00;74.40;;;;;;5019312;28;20025;-70
2022/03/05 03:25:05;;;;;;;34.83;17.65;;;1.00;74.40;;;;;;5019809;28;21313;-71
2022/03/05 03:27:30;;;;;;;34.60;18.40;;;1.00;74.60;;;;;;5012692;28;20034;-70
2022/03/05 03:29:58;;;;;;;32.42;17.55;;;1.00;74.60;;;;;;5014308;28;20389;-70
2022/03/05 03:32:23;;;;;;;31.23;17.25;;;0.90;74.70;;;;;;5023167;28;20035;-71
2022/03/05 03:34:49;;;;;;;30.00;16.17;;;0.90;75.00;;;;;;5022036;28;20029;-70
2022/03/05 03:37:15;;;;;;;35.78;18.55;;;0.80;74.90;;;;;;5023260;28;20087;-70
2022/03/05 03:39:40;;;;;;;31.77;16.67;;;0.80;75.00;;;;;;5021849;28;20472;-71
2022/03/05 03:42:06;;;;;;;32.35;17.00;;;0.80;75.00;;;;;;5019719;28;20033;-70
2022/03/05 03:44:31;;;;;;;32.80;17.48;;;0.80;75.00;;;;;;5024166;28;20049;-70
2022/03/05 03:46:57;;;;;;;30.70;16.77;;;0.80;75.10;;;;;;5016463;28;20065;-70
2022/03/05 03:49:23;;;;;;;31.10;15.73;;;0.80;75.10;;;;;;5019699;28;20052;-70
2022/03/05 03:51:49;;;;;;;36.17;17.58;;;0.80;75.10;;;;;;5014253;28;20389;-72
2022/03/05 03:54:15;;;;;;;29.65;16.05;;;0.80;75.00;;;;;;5024037;28;20022;-68
2022/03/05 03:56:40;;;;;;;34.13;18.40;;;0.80;75.10;;;;;;5020034;28;20093;-70
2022/03/05 03:59:06;;;;;;;31.38;16.40;;;0.70;75.30;;;;;;5023006;28;20171;-70
2022/03/05 04:01:31;;;;;;;35.28;18.35;;;0.70;75.30;;;;;;5022038;28;20044;-69
2022/03/05 04:03:57;;;;;;;38.35;20.35;;;0.70;75.60;;;;;;5021326;28;20030;-70
2022/03/05 04:06:22;;;;;;;33.53;18.15;;;0.70;75.70;;;;;;5024238;28;20025;-69
2022/03/05 04:08:48;;;;;;;35.25;18.27;;;0.70;75.80;;;;;;5018401;28;20174;-70
2022/03/05 04:11:18;;;;;;;34.30;17.75;;;0.70;75.80;;;;;;5023586;28;20057;-69
2022/03/05 04:13:45;;;;;;;37.45;19.08;;;0.60;75.80;;;;;;5013355;28;20064;-70
2022/03/05 04:16:12;;;;;;;33.55;18.15;;;0.60;75.80;;;;;;5016937;28;20018;-71
2022/03/05 04:18:37;;;;;;;36.17;18.40;;;0.60;75.90;;;;;;5014305;28;20037;-70
2022/03/05 04:21:04;;;;;;;36.85;18.35;;;0.60;76.20;;;;;;5022210;28;20515;-70
2022/03/05 04:23:30;;;;;;;37.53;18.35;;;0.50;76.00;;;;;;5010471;28;20080;-71
2022/03/05 04:25:56;;;;;;;34.45;17.67;;;0.50;75.90;;;;;;5019424;28;20057;-71
2022/03/05 04:28:21;;;;;;;33.45;15.32;;;0.60;76.00;;;;;;5012382;28;20049;-71
2022/03/05 04:30:47;;;;;;;37.50;18.83;;;0.60;75.90;;;;;;5023185;28;20027;-71
2022/03/05 04:33:12;;;;;;;36.88;18.90;;;0.60;75.80;;;;;;5014209;28;20082;-71
2022/03/05 04:35:38;;;;;;;35.42;18.20;;;0.60;75.80;;;;;;5021121;28;20032;-69
2022/03/05 04:38:04;;;;;;;33.78;16.42;;;0.60;75.80;;;;;;5011213;28;20018;-70
2022/03/05 04:40:29;;;;;;;30.65;16.35;;;0.60;75.80;;;;;;5016269;28;20045;-69
2022/03/05 04:42:55;;;;;;;36.42;18.15;;;0.60;75.70;;;;;;5015333;28;20029;-71
2022/03/05 04:45:21;;;;;;;36.90;17.98;;;0.60;75.60;;;;;;5023040;28;20040;-71
2022/03/05 04:47:46;;;;;;;32.63;16.65;;;0.60;75.70;;;;;;5015121;28;20030;-70
2022/03/05 04:50:12;;;;;;;34.95;17.73;;;0.70;75.60;;;;;;5020624;28;20510;-71
2022/03/05 04:52:38;;;;;;;33.97;17.20;;;0.60;75.40;;;;;;5021045;28;20456;-70
2022/03/05 04:55:05;;;;;;;36.83;18.90;;;0.70;75.50;;;;;;5018793;28;20105;-71
2022/03/05 04:57:31;;;;;;;33.60;17.08;;;0.70;75.50;;;;;;5022073;28;20029;-71
2022/03/05 04:59:57;;;;;;;34.03;17.58;;;0.70;75.40;;;;;;5020248;28;20034;-70
2022/03/05 05:02:22;;;;;;;35.00;18.42;;;0.70;75.40;;;;;;5019224;28;20036;-70
2022/03/05 05:04:48;;;;;;;34.88;16.77;;;0.70;75.30;;;;;;5017752;28;20026;-71
2022/03/05 05:07:13;;;;;;;35.13;17.38;;;0.70;75.30;;;;;;5013453;28;20017;-71
2022/03/05 05:09:40;;;;;;;32.10;16.45;;;0.70;75.20;;;;;;5019930;28;20163;-71
2022/03/05 05:12:07;;;;;;;39.92;19.80;;;0.70;75.10;;;;;;5021552;28;20028;-71
2022/03/05 05:14:32;;;;;;;32.85;16.30;;;0.70;75.10;;;;;;5018613;28;20564;-69
2022/03/05 05:16:58;;;;;;;33.28;17.33;;;0.70;75.20;;;;;;5013634;28;20126;-70
2022/03/05 05:19:29;;;;;;;34.03;17.42;;;0.70;75.10;;;;;;5021487;28;20071;-69
2022/03/05 05:22:06;;;;;;;38.47;18.98;;;0.70;75.00;;;;;;5015544;28;20033;-70
2022/03/05 05:24:35;;;;;;;37.80;17.58;;;0.70;75.10;;;;;;5012384;28;20030;-70
2022/03/05 05:27:01;;;;;;;36.13;18.52;;;0.70;75.10;;;;;;5002249;28;20113;-70
2022/03/05 05:29:27;;;;;;;30.05;15.20;;;0.70;75.10;;;;;;5020844;28;20182;-70
2022/03/05 05:31:55;;;;;;;32.45;16.48;;;0.60;74.90;;;;;;5012476;28;20461;-70
2022/03/05 05:34:21;;;;;;;34.85;17.52;;;0.60;74.90;;;;;;5009779;28;20041;-69
2022/03/05 05:36:47;;;;;;;31.42;15.98;;;0.60;74.90;;;;;;5008975;28;20105;-70
2022/03/05 05:39:13;;;;;;;30.25;15.02;;;0.60;74.80;;;;;;5021515;28;20026;-70
2022/03/05 05:41:39;;;;;;;30.05;14.57;;;0.70;74.80;;;;;;5009103;28;20057;-70
2022/03/05 05:44:08;;;;;;;34.97;17.35;;;0.70;74.70;;;;;;5020139;28;20037;-70
2022/03/05 05:46:34;;;;;;;33.13;17.40;;;0.70;74.60;;;;;;5014237;28;20087;-70
2022/03/05 05:49:00;;;;;;;31.42;15.82;;;0.70;74.60;;;;;;5010366;28;20026;-71
2022/03/05 05:51:27;;;;;;;31.85;15.90;;;0.70;74.60;;;;;;5019639;28;20025;-70
2022/03/05 05:53:53;;;;;;;30.25;15.57;;;0.70;74.50;;;;;;5016887;28;20032;-70
2022/03/05 05:56:19;;;;;;;30.65;16.23;;;0.70;74.50;;;;;;5014974;28;20100;-71
2022/03/05 05:58:45;;;;;;;32.13;16.67;;;0.70;74.50;;;;;;5011807;28;20668;-70
2022/03/05 06:01:11;;;;;;;33.15;16.73;;;0.70;74.40;;;;;;5009075;28;20443;-71
2022/03/05 06:03:37;;;;;;;33.50;15.73;;;0.70;74.50;;;;;;5016963;28;20029;-71
2022/03/05 06:06:02;;;;;;;33.95;16.50;;;0.70;74.50;;;;;;5007599;28;20068;-70
2022/03/05 06:08:28;;;;;;;37.50;17.83;;;0.60;74.60;;;;;;5017899;28;20037;-71
2022/03/05 06:10:55;;;;;;;36.70;18.10;;;0.60;75.40;;;;;;5009404;28;20025;-70
2022/03/05 06:13:21;;;;;;;37.22;18.08;;;0.50;75.00;;;;;;5013372;28;20151;-70
2022/03/05 06:15:47;;;;;;;32.50;16.52;;;0.50;75.10;;;;;;5011575;28;20022;-70
2022/03/05 06:18:14;;;;;;;31.13;14.75;;;0.50;75.10;;;;;;5020382;28;20031;-71
2022/03/05 06:20:39;;;;;;;32.60;16.27;;;0.50;75.00;;;;;;5014281;28;20057;-71
2022/03/05 06:23:05;;;;;;;38.85;18.75;;;0.50;74.90;;;;;;5002338;28;20049;-72
2022/03/05 06:25:31;;;;;;;35.17;17.13;;;0.50;74.90;;;;;;5007728;28;20034;-71
2022/03/05 06:27:57;;;;;;;30.42;15.70;;;0.50;74.90;;;;;;5017839;28;20033;-71
2022/03/05 06:30:22;;;;;;;33.28;15.93;;;0.50;74.90;;;;;;5009858;28;20033;-71
2022/03/05 06:32:48;;;;;;;34.78;16.27;;;0.50;74.80;;;;;;5019788;28;20050;-71
2022/03/05 06:35:14;;;;;;;30.90;15.35;;;0.50;74.80;;;;;;5021255;28;20387;-71
2022/03/05 06:37:40;;;;;;;37.60;18.88;;;0.50;74.80;;;;;;5021460;28;20037;-71
2022/03/05 06:40:10;;;;;;;30.45;15.68;;;0.50;74.80;;;;;;5014819;28;20493;-71
2022/03/05 06:42:36;;;;;;;34.97;17.70;;;0.60;74.90;;;;;;5014908;28;20530;-71
2022/03/05 06:45:01;;;;;;;36.15;17.80;;;0.60;74.90;;;;;;5009145;28;20034;-71
2022/03/05 06:47:27;;;;;;;34.75;16.48;;;0.60;74.90;;;;;;5013477;28;20084;-72
2022/03/05 06:49:53;;;;;;;32.97;16.08;;;0.60;74.80;;;;;;5011558;28;20434;-71
2022/03/05 06:52:18;;;;;;;40.10;18.98;;;0.60;74.70;;;;;;5020921;28;20025;-71
2022/03/05 06:54:44;;;;;;;39.00;18.33;;;0.70;74.80;;;;;;5015307;28;20527;-69
2022/03/05 06:57:09;;;;;;;44.88;18.70;;;0.60;74.70;;;;;;5005493;28;20059;-69
2022/03/05 06:59:35;;;;;;;35.28;16.55;;;0.70;74.80;;;;;;5011845;28;20109;-70
2022/03/05 07:02:00;;;;;;;35.15;17.02;;;0.70;74.80;;;;;;5005566;28;20026;-70
2022/03/05 07:04:26;;;;;;;37.95;19.15;;;0.70;74.80;;;;;;5004555;28;20116;-71
2022/03/05 07:06:52;;;;;;;31.58;15.57;;;0.80;74.90;;;;;;5010216;28;20440;-70
2022/03/05 07:09:17;;;;;;;36.35;18.20;;;0.80;74.80;;;;;;5012354;28;20444;-70
2022/03/05 07:11:43;;;;;;;38.95;18.33;;;0.90;74.70;;;;;;5011624;28;20021;-69
2022/03/05 07:14:09;;;;;;;33.97;16.05;;;0.90;74.60;;;;;;5009886;28;20045;-69
2022/03/05 07:16:34;;;;;;;35.85;17.52;;;1.00;74.30;;;;;;5008074;28;20053;-69
2022/03/05 07:19:00;;;;;;;35.08;17.13;;;1.10;74.20;;;;;;5011901;28;20476;-70
2022/03/05 07:21:26;;;;;;;29.45;15.18;;;1.10;73.90;;;;;;5010654;28;20041;-70
2022/03/05 07:23:51;;;;;;;37.88;18.30;;;1.20;73.90;;;;;;5013369;28;20635;-70
2022/03/05 07:26:18;;;;;;;36.95;17.15;;;1.20;73.70;;;;;;5008416;28;20040;-70
2022/03/05 07:28:45;;;;;;;34.00;17.17;;;1.40;73.60;;;;;;5011303;28;20029;-69
2022/03/05 07:31:10;;;;;;;36.55;18.85;;;1.40;73.40;;;;;;5008596;28;20492;-70
2022/03/05 07:33:36;;;;;;;35.22;17.98;;;1.40;73.20;;;;;;5011976;28;20113;-70
2022/03/05 07:36:05;;;;;;;33.20;16.77;;;1.40;73.00;;;;;;5009154;28;20105;-71
2022/03/05 07:38:32;;;;;;;33.65;16.23;;;1.50;72.90;;;;;;5012090;28;20030;-70
2022/03/05 07:40:58;;;;;;;28.25;14.13;;;1.60;72.70;;;;;;5009239;28;20022;-71
2022/03/05 07:43:23;;;;;;;36.17;18.45;;;1.70;72.70;;;;;;5002303;28;20026;-69
2022/03/05 07:45:49;;;;;;;38.40;19.38;;;1.70;72.40;;;;;;5007312;28;20396;-70
2022/03/05 07:48:19;;;;;;;33.45;15.82;;;1.80;72.20;;;;;;5007988;28;20029;-70
2022/03/05 07:50:46;;;;;;;31.85;15.90;;;1.80;72.00;;;;;;5009199;28;20026;-70
2022/03/05 07:53:11;;;;;;;32.00;16.23;;;1.90;71.90;;;;;;5011381;28;20485;-71
2022/03/05 07:55:37;;;;;;;29.60;15.30;;;2.00;71.70;;;;;;5009283;28;20133;-71
2022/03/05 07:58:03;;;;;;;29.10;14.85;;;2.10;71.60;;;;;;5012265;28;20022;-69
2022/03/05 08:00:28;;;;;;;35.17;18.05;;;2.20;71.30;;;;;;5009758;28;20034;-70
2022/03/05 08:02:54;;;;;;;33.35;15.90;;;2.30;71.10;;;;;;5007341;28;20026;-70
2022/03/05 08:05:20;;;;;;;30.42;14.82;;;2.40;70.80;;;;;;5008689;28;20030;-71
2022/03/05 08:07:46;;;;;;;31.48;16.02;;;2.40;70.60;;;;;;5010857;28;20033;-69
2022/03/05 08:10:12;;;;;;;28.88;14.73;;;2.50;70.30;;;;;;5011519;28;20032;-70
2022/03/05 08:12:37;;;;;;;31.35;16.13;;;2.60;70.20;;;;;;5013282;28;20022;-70
2022/03/05 08:15:04;;;;;;;32.40;15.30;;;2.70;69.90;;;;;;5009471;28;20017;-70
2022/03/05 08:17:30;;;;;;;32.63;15.93;;;2.70;69.70;;;;;;5008418;28;20144;-71
2022/03/05 08:19:55;;;;;;;29.75;14.82;;;2.90;69.60;;;;;;5021892;28;20068;-71
2022/03/05 08:22:21;;;;;;;28.38;14.55;;;3.00;69.20;;;;;;5015575;28;20429;-70
2022/03/05 08:24:47;;;;;;;32.08;16.63;;;3.00;69.40;;;;;;5018201;28;20058;-71
2022/03/05 08:27:12;;;;;;;30.75;15.10;;;3.10;68.70;;;;;;5014251;28;20687;-72
2022/03/05 08:29:38;;;;;;;30.85;15.35;;;3.20;68.70;;;;;;5021416;28;20018;-72
2022/03/05 08:32:04;;;;;;;28.98;14.88;;;3.30;68.50;;;;;;5017531;28;20030;-71
2022/03/05 08:34:29;;;;;;;31.77;14.85;;;3.40;68.10;;;;;;5009148;28;20033;-72
2022/03/05 08:36:55;;;;;;;33.08;15.43;;;3.40;67.90;;;;;;5008700;28;20033;-71
2022/03/05 08:39:21;;;;;;;34.25;18.23;;;3.50;67.70;;;;;;5012023;28;20038;-70
2022/03/05 08:41:46;;;;;;;29.17;14.45;;;3.60;67.40;;;;;;5019353;28;20026;-71
2022/03/05 08:44:13;;;;;;;29.52;15.25;;;3.60;67.40;;;;;;5007639;28;20184;-70
2022/03/05 08:46:39;;;;;;;31.42;16.52;;;3.60;67.40;;;;;;5009196;28;20056;-71
2022/03/05 08:49:05;;;;;;;33.65;15.75;;;3.70;67.10;;;;;;5011084;28;20432;-71
2022/03/05 08:51:31;;;;;;;25.90;14.15;;;3.80;66.90;;;;;;5009492;28;20022;-71
2022/03/05 08:53:56;;;;;;;27.67;14.18;;;3.80;66.80;;;;;;5012167;28;20035;-71
2022/03/05 08:56:23;;;;;;;30.75;15.88;;;3.90;66.70;;;;;;5009286;28;20045;-71
2022/03/05 08:58:48;;;;;;;35.17;17.42;;;3.90;66.30;;;;;;5011822;28;20026;-70
2022/03/05 09:01:14;;;;;;;31.13;15.82;;;3.90;66.30;;;;;;5008823;28;20032;-71
2022/03/05 09:03:40;;;;;;;32.30;17.27;;;3.90;66.20;;;;;;5008803;28;20030;-71
2022/03/05 09:06:06;;;;;;;36.10;17.98;;;3.90;66.00;;;;;;5007320;28;20040;-71
2022/03/05 09:08:32;;;;;;;30.50;16.13;;;4.00;66.20;;;;;;5010101;28;20017;-70
2022/03/05 09:10:57;;;;;;;37.05;18.45;;;4.00;66.10;;;;;;5013155;28;20041;-71
2022/03/05 09:13:23;;;;;;;37.38;17.27;;;4.00;65.90;;;;;;5011771;28;20049;-70
2022/03/05 09:15:48;;;;;;;31.15;15.82;;;4.00;65.80;;;;;;5005881;28;20377;-71
2022/03/05 09:18:14;;;;;;;33.58;17.17;;;4.00;65.70;;;;;;5007903;28;20040;-71
2022/03/05 09:20:43;;;;;;;31.27;16.10;;;4.10;65.70;;;;;;5010077;28;20052;-70
2022/03/05 09:23:08;;;;;;;36.85;18.17;;;4.10;65.60;;;;;;5000673;28;20436;-70
2022/03/05 09:25:34;;;;;;;32.42;17.13;;;4.10;65.50;;;;;;5011950;28;20026;-70
2022/03/05 09:27:59;;;;;;;33.15;15.60;;;4.00;65.30;;;;;;5013881;28;20018;-71
2022/03/05 09:30:25;;;;;;;32.38;16.77;;;4.10;65.40;;;;;;5017598;28;20056;-71
2022/03/05 09:32:51;;;;;;;32.72;16.10;;;4.20;65.50;;;;;;5007672;28;20026;-71
2022/03/05 09:35:16;;;;;;;37.50;19.48;;;4.20;65.60;;;;;;5009728;28;20429;-71
2022/03/05 09:37:42;;;;;;;34.58;17.27;;;4.30;65.40;;;;;;5015651;28;20354;-70
2022/03/05 09:40:10;;;;;;;33.17;17.27;;;4.20;65.20;;;;;;5021619;28;20033;-70
2022/03/05 09:42:37;;;;;;;36.17;18.33;;;4.30;65.30;;;;;;5006812;28;20030;-72
2022/03/05 09:45:03;;;;;;;32.88;17.67;;;4.30;65.40;;;;;;5014206;28;20512;-70
2022/03/05 09:47:29;;;;;;;32.40;17.65;;;4.30;65.20;;;;;;5011790;28;20072;-70
2022/03/05 09:49:55;;;;;;;29.85;16.48;;;4.40;65.40;;;;;;5015133;28;20389;-71
2022/03/05 09:52:20;;;;;;;32.30;18.00;;;4.50;65.30;;;;;;5003735;28;20022;-71
2022/03/05 09:54:46;;;;;;;32.10;17.95;;;4.60;65.10;;;;;;5007487;28;20040;-71
2022/03/05 09:57:13;;;;;;;32.85;16.50;;;4.60;64.90;;;;;;5002596;28;20018;-71
2022/03/05 09:59:39;;;;;;;31.38;17.27;;;4.60;64.90;;;;;;5005855;28;20041;-70
2022/03/05 10:02:05;;;;;;;30.73;16.67;;;4.50;64.90;;;;;;5008673;28;20040;-71
2022/03/05 10:04:31;;;;;;;37.15;19.52;;;4.60;65.10;;;;;;5008932;28;20033;-71
2022/03/05 10:07:20;;;;;;;33.20;18.35;;;4.60;65.00;;;;;;5011281;28;20036;-70
2022/03/05 10:09:48;;;;;;;36.28;17.88;;;4.60;64.90;;;;;;5014872;28;20026;-70
2022/03/05 10:12:27;;;;;;;27.25;14.52;;;4.60;65.00;;;;;;5012968;28;20053;-70
2022/03/05 10:15:17;;;;;;;31.90;16.40;;;4.80;65.10;;;;;;5008059;28;20080;-71
2022/03/05 10:17:48;;;;;;;37.67;19.35;;;4.80;64.90;;;;;;5003193;28;20026;-70
2022/03/05 10:20:14;;;;;;;36.72;19.77;;;4.90;64.60;;;;;;5009153;28;20037;-71
2022/03/05 10:23:08;;;;;;;36.20;19.50;;;4.90;64.50;;;;;;5015986;28;20079;-71
2022/03/05 10:25:39;;;;;;;33.88;18.83;;;4.90;64.30;;;;;;5018578;28;20022;-71
2022/03/05 10:28:07;;;;;;;28.88;15.63;;;4.70;64.50;;;;;;5005145;28;20030;-71
2022/03/05 10:30:44;;;;;;;34.90;18.13;;;4.80;65.00;;;;;;5011962;28;20030;-71
2022/03/05 10:33:25;;;;;;;31.20;16.55;;;4.80;65.10;;;;;;5011677;28;20068;-71
2022/03/05 10:35:51;;;;;;;31.52;17.10;;;4.90;65.10;;;;;;5011814;28;20026;-70
2022/03/05 10:38:17;;;;;;;33.63;17.88;;;5.10;64.90;;;;;;5005487;28;20030;-69
2022/03/05 10:40:43;;;;;;;32.92;18.50;;;5.20;64.60;;;;;;5016178;28;20140;-69
2022/03/05 10:43:09;;;;;;;34.45;18.30;;;5.20;64.40;;;;;;5017168;28;20034;-70
2022/03/05 10:45:52;;;;;;;35.33;19.23;;;5.40;64.10;;;;;;5018014;28;20056;-70
2022/03/05 10:48:30;;;;;;;36.17;19.05;;;5.40;63.60;;;;;;5011474;28;20026;-71
2022/03/05 10:51:01;;;;;;;30.45;16.10;;;5.40;63.10;;;;;;5021509;28;20022;-71
2022/03/05 10:53:47;;;;;;;33.65;18.85;;;5.50;63.20;;;;;;5011720;28;20396;-70
2022/03/05 10:56:33;;;;;;;30.88;16.55;;;5.50;63.00;;;;;;5006612;28;20045;-71
2022/03/05 10:59:02;;;;;;;32.65;18.08;;;5.50;63.00;;;;;;5010275;28;20049;-71
2022/03/05 11:01:29;;;;;;;31.70;17.23;;;5.60;62.80;;;;;;5015337;28;20060;-71
2022/03/05 11:03:56;;;;;;;31.08;16.83;;;5.60;62.70;;;;;;5011598;28;20056;-69
2022/03/05 11:06:22;;;;;;;29.35;15.73;;;5.70;62.30;;;;;;5010367;28;20437;-69
2022/03/05 11:08:48;;;;;;;33.58;18.42;;;5.80;62.30;;;;;;5008442;28;20022;-70
2022/03/05 11:11:15;;;;;;;33.15;18.02;;;5.90;62.00;;;;;;5009790;28;20128;-70
2022/03/05 11:13:42;;;;;;;28.15;16.02;;;5.90;61.80;;;;;;5009177;28;20132;-70
2022/03/05 11:16:09;;;;;;;30.55;16.55;;;6.00;61.80;;;;;;5010870;28;20100;-71
2022/03/05 11:18:38;;;;;;;32.17;17.63;;;6.10;61.60;;;;;;5010064;28;20092;-71
2022/03/05 11:21:05;;;;;;;34.17;19.85;;;6.10;60.90;;;;;;5009513;28;20520;-70
2022/03/05 11:23:33;;;;;;;33.63;18.50;;;6.20;60.90;;;;;;5012533;28;20025;-70
2022/03/05 11:26:00;;;;;;;28.65;15.38;;;6.30;60.70;;;;;;5007161;28;20030;-71
2022/03/05 11:28:37;;;;;;;35.75;19.63;;;6.40;60.60;;;;;;5013586;28;20038;-71
2022/03/05 11:31:14;;;;;;;30.48;16.95;;;6.40;60.00;;;;;;5017222;28;20030;-72
2022/03/05 11:33:43;;;;;;;32.20;17.73;;;6.40;60.30;;;;;;5007291;28;20025;-71
2022/03/05 11:36:27;;;;;;;31.05;17.08;;;6.50;60.20;;;;;;5007951;28;20750;-71
2022/03/05 11:39:07;;;;;;;32.45;17.27;;;6.60;60.20;;;;;;5009685;28;20030;-71
2022/03/05 11:41:46;;;;;;;27.67;15.38;;;6.70;60.00;;;;;;5010432;28;20092;-71
2022/03/05 11:44:13;;;;;;;25.10;13.65;;;6.70;59.80;;;;;;5012037;28;20061;-71
2022/03/05 11:46:39;;;;;;;33.83;18.85;;;6.80;59.70;;;;;;5011261;28;20030;-72
2022/03/05 11:49:06;;;;;;;31.35;16.95;;;6.80;58.90;;;;;;5011628;28;20089;-71
2022/03/05 11:51:33;;;;;;;31.30;16.35;;;6.70;58.90;;;;;;5010836;28;20033;-70
2022/03/05 11:54:13;;;;;;;32.13;16.38;;;6.80;59.30;;;;;;5012576;28;20060;-69
2022/03/05 11:56:38;;;;;;;30.88;16.42;;;6.90;59.50;;;;;;5008749;28;20037;-70
2022/03/05 11:59:30;;;;;;;30.08;16.55;;;7.00;59.20;;;;;;5005201;28;20034;-70
2022/03/05 12:01:56;;;;;;;31.50;17.05;;;7.00;58.40;;;;;;5007545;28;20465;-71
2022/03/05 12:04:24;;;;;;;34.00;18.63;;;7.10;58.40;;;;;;5009645;28;20125;-72
2022/03/05 12:06:54;;;;;;;28.40;16.60;;;7.10;58.40;;;;;;5012850;28;20456;-71
2022/03/05 12:09:43;;;;;;;29.05;16.85;;;7.10;58.40;;;;;;5010626;28;20034;-71
2022/03/05 12:12:11;;;;;;;34.20;17.80;;;7.20;58.60;;;;;;5016204;28;20045;-71
2022/03/05 12:14:55;;;;;;;33.35;17.75;;;7.40;57.90;;;;;;5009040;28;20057;-71
2022/03/05 12:17:23;;;;;;;31.67;17.15;;;7.40;57.60;;;;;;5008069;28;20084;-70
2022/03/05 12:19:49;;;;;;;27.67;15.70;;;7.40;57.40;;;;;;5009248;28;20100;-70
2022/03/05 12:22:15;;;;;;;28.50;15.40;;;7.50;57.40;;;;;;5009090;28;20058;-69
2022/03/05 12:24:41;;;;;;;27.77;15.30;;;7.50;57.40;;;;;;5018760;28;20476;-69
2022/03/05 12:27:14;;;;;;;29.63;16.60;;;7.60;57.60;;;;;;5018584;28;20045;-70
2022/03/05 12:29:51;;;;;;;35.38;20.20;;;7.60;57.10;;;;;;5011810;28;20026;-70
2022/03/05 12:32:18;;;;;;;32.55;18.58;;;7.50;56.50;;;;;;5015326;28;20461;-70
2022/03/05 12:34:43;;;;;;;30.45;17.70;;;7.40;56.90;;;;;;5014688;28;20026;-72